createdAt,value
2018-06-14T00:02:22.393Z,97590.25
2018-06-14T00:04:55.262Z,97592.13
2018-06-14T00:07:28.675Z,97595.11
2018-06-14T00:10:01.417Z,97603.38
2018-06-14T00:12:34.877Z,97600.69
2018-06-14T00:15:09.849Z,97603.38
2018-06-14T00:17:42.926Z,97613.33
2018-06-14T00:20:15.694Z,97614.66
2018-06-14T00:22:49.052Z,97618.98
2018-06-14T00:25:23.071Z,97620.05
2018-06-14T00:27:55.536Z,97621.16
2018-06-14T00:30:28.143Z,97614.31
2018-06-14T00:33:01.574Z,97621.05
2018-06-14T00:35:34.059Z,97625.06
2018-06-14T00:38:07.125Z,97624.01
2018-06-14T00:40:40.577Z,97625.06
2018-06-14T00:43:13.775Z,97631.51
2018-06-14T00:45:46.601Z,97631.75
2018-06-14T00:48:19.326Z,97636.31
2018-06-14T00:50:51.907Z,97643.63
2018-06-14T00:53:24.931Z,97644.13
2018-06-14T00:55:58.584Z,97649.11
2018-06-14T00:58:31.183Z,97652.09
2018-06-14T01:01:03.795Z,97653.45
2018-06-14T01:03:36.274Z,97658.30
2018-06-14T01:06:09.506Z,97653.97
2018-06-14T01:08:42.516Z,97663.05
2018-06-14T01:11:15.473Z,97660.94
2018-06-14T01:13:48.637Z,97664.39
2018-06-14T01:16:21.188Z,97671.95
2018-06-14T01:18:54.575Z,97670.86
2018-06-14T01:21:27.583Z,97674.91
2018-06-14T01:24:00.491Z,97678.36
2018-06-14T01:26:34.372Z,97681.81
2018-06-14T01:29:06.958Z,97684.03
2018-06-14T01:31:40.243Z,97689.13
2018-06-14T01:34:12.794Z,97692.88
2018-06-14T01:36:45.919Z,97696.15
2018-06-14T01:39:19.648Z,97703.05
2018-06-14T01:41:52.583Z,97701.48
2018-06-14T01:44:25.487Z,97702.30
2018-06-14T01:46:58.937Z,97700.36
2018-06-14T01:49:31.693Z,97706.80
2018-06-14T01:52:04.914Z,97713.00
2018-06-14T01:54:38.543Z,97714.09
2018-06-14T01:57:11.665Z,97713.82
2018-06-14T01:59:44.150Z,97716.92
2018-06-14T02:02:17.477Z,97725.30
2018-06-14T02:04:50.299Z,97730.38
2018-06-14T02:07:22.669Z,97728.42
2018-06-14T02:09:54.769Z,97729.27
2018-06-14T02:12:27.181Z,97733.31
2018-06-14T02:14:59.613Z,97728.98
2018-06-14T02:17:32.327Z,97734.36
2018-06-14T02:20:05.863Z,97733.31
2018-06-14T02:22:39.165Z,97735.16
2018-06-14T02:25:12.196Z,97736.50
2018-06-14T02:27:44.852Z,97733.52
2018-06-14T02:30:17.512Z,97735.45
2018-06-14T02:32:50.626Z,97733.52
2018-06-14T02:35:23.177Z,97736.97
2018-06-14T02:37:56.411Z,97735.45
2018-06-14T02:40:28.867Z,97733.02
2018-06-14T02:43:01.369Z,97738.89
2018-06-14T02:45:33.800Z,97741.00
2018-06-14T02:48:05.882Z,97739.66
2018-06-14T02:50:38.759Z,97744.52
2018-06-14T02:53:10.859Z,97741.30
2018-06-14T02:55:43.001Z,97749.37
2018-06-14T02:58:15.233Z,97741.82
2018-06-14T03:00:48.661Z,97748.78
2018-06-14T03:03:22.592Z,97750.63
2018-06-14T03:05:55.033Z,97744.19
2018-06-14T03:08:27.704Z,97745.53
2018-06-14T03:11:00.462Z,97746.59
2018-06-14T03:13:33.179Z,97738.80
2018-06-14T03:16:06.021Z,97739.59
2018-06-14T03:18:39.835Z,97741.30
2018-06-14T03:21:12.523Z,97747.20
2018-06-14T03:23:45.223Z,97750.72
2018-06-14T03:26:17.585Z,97749.60
2018-06-14T03:28:50.190Z,97743.45
2018-06-14T03:31:22.892Z,97747.56
2018-06-14T03:33:56.294Z,97749.72
2018-06-14T03:36:28.785Z,97744.60
2018-06-14T03:39:01.784Z,97737.05
2018-06-14T03:41:34.071Z,97742.73
2018-06-14T03:44:06.894Z,97743.02
2018-06-14T03:46:39.506Z,97744.05
2018-06-14T03:49:12.781Z,97736.79
2018-06-14T03:51:46.056Z,97747.30
2018-06-14T03:54:19.092Z,97745.13
2018-06-14T03:56:51.722Z,97751.63
2018-06-14T03:59:24.919Z,97756.77
2018-06-14T04:01:58.072Z,97751.92
2018-06-14T04:04:35.975Z,97748.70
2018-06-14T04:07:09.755Z,97750.05
2018-06-14T04:09:43.212Z,97749.22
2018-06-14T04:12:15.656Z,97750.05
2018-06-14T04:14:49.871Z,97748.70
2018-06-14T04:17:22.920Z,97749.28
2018-06-14T04:19:56.246Z,97751.22
2018-06-14T04:22:30.508Z,97746.89
2018-06-14T04:25:03.608Z,97746.66
2018-06-14T04:27:36.715Z,97740.45
2018-06-14T04:30:10.738Z,97741.86
2018-06-14T04:32:43.476Z,97737.81
2018-06-14T04:35:16.966Z,97739.16
2018-06-14T04:37:50.600Z,97746.19
2018-06-14T04:40:23.611Z,97734.27
2018-06-14T04:42:56.583Z,97749.83
2018-06-14T04:45:29.489Z,97742.94
2018-06-14T04:48:01.800Z,97734.02
2018-06-14T04:50:35.212Z,97734.14
2018-06-14T04:53:08.469Z,97736.64
2018-06-14T04:55:42.254Z,97742.55
2018-06-14T04:58:15.234Z,97731.55
2018-06-14T05:00:48.141Z,97734.34
2018-06-14T05:03:21.201Z,97725.88
2018-06-14T05:05:54.146Z,97735.16
2018-06-14T05:08:26.848Z,97734.47
2018-06-14T05:10:59.694Z,97733.66
2018-06-14T05:13:32.324Z,97732.00
2018-06-14T05:16:06.100Z,97729.47
2018-06-14T05:18:38.566Z,97741.14
2018-06-14T05:21:11.013Z,97741.96
2018-06-14T05:23:44.261Z,97743.89
2018-06-14T05:26:17.866Z,97736.14
2018-06-14T05:28:51.702Z,97729.19
2018-06-14T05:31:24.896Z,97734.33
2018-06-14T05:33:57.523Z,97727.92
2018-06-14T05:36:30.129Z,97735.47
2018-06-14T05:39:02.565Z,97732.84
2018-06-14T05:41:35.960Z,97729.39
2018-06-14T05:44:08.880Z,97718.03
2018-06-14T05:46:42.282Z,97720.27
2018-06-14T05:49:14.471Z,97724.78
2018-06-14T05:51:47.490Z,97721.98
2018-06-14T05:54:19.800Z,97718.80
2018-06-14T05:56:58.280Z,97716.81
2018-06-14T05:59:32.393Z,97709.31
2018-06-14T06:02:05.534Z,97701.83
2018-06-14T06:04:38.959Z,97712.09
2018-06-14T06:07:15.134Z,97709.16
2018-06-14T06:09:48.546Z,97716.72
2018-06-14T06:12:22.117Z,97698.98
2018-06-14T06:14:56.580Z,97701.67
2018-06-14T06:17:29.979Z,97693.59
2018-06-14T06:20:02.990Z,97697.37
2018-06-14T06:22:36.484Z,97685.59
2018-06-14T06:25:09.322Z,97686.41
2018-06-14T06:27:43.452Z,97693.73
2018-06-14T06:30:15.835Z,97692.09
2018-06-14T06:32:50.194Z,97684.30
2018-06-14T06:35:22.984Z,97679.21
2018-06-14T06:37:58.011Z,97679.47
2018-06-14T06:40:31.418Z,97671.73
2018-06-14T06:43:07.684Z,97672.32
2018-06-14T06:45:41.323Z,97658.88
2018-06-14T06:48:14.683Z,97669.13
2018-06-14T06:50:48.727Z,97666.66
2018-06-14T06:53:21.445Z,97651.38
2018-06-14T06:55:54.748Z,97652.44
2018-06-14T06:58:28.061Z,97658.16
2018-06-14T07:01:01.003Z,97648.57
2018-06-14T07:03:33.933Z,97648.76
2018-06-14T07:06:10.989Z,97639.57
2018-06-14T07:08:44.110Z,97636.40
2018-06-14T07:11:17.581Z,97640.44
2018-06-14T07:13:50.367Z,97618.30
2018-06-14T07:16:23.091Z,97630.36
2018-06-14T07:18:55.876Z,97632.81
2018-06-14T07:21:29.097Z,97624.81
2018-06-14T07:24:03.168Z,97629.72
2018-06-14T07:26:37.498Z,97619.71
2018-06-14T07:29:10.727Z,97617.89
2018-06-14T07:31:44.132Z,97619.77
2018-06-14T07:34:18.637Z,97614.92
2018-06-14T07:36:52.075Z,97604.00
2018-06-14T07:39:25.475Z,97604.53
2018-06-14T07:41:58.875Z,97599.97
2018-06-14T07:44:32.006Z,97596.02
2018-06-14T07:47:05.363Z,97588.22
2018-06-14T07:49:38.751Z,97594.14
2018-06-14T07:52:11.650Z,97587.42
2018-06-14T07:54:45.862Z,97593.80
2018-06-14T07:57:18.930Z,97580.09
2018-06-14T07:59:51.440Z,97585.77
2018-06-14T08:02:24.214Z,97583.95
2018-06-14T08:04:57.148Z,97587.76
2018-06-14T08:07:30.521Z,97586.19
2018-06-14T08:10:03.981Z,97568.66
2018-06-14T08:12:37.153Z,97561.63
2018-06-14T08:15:10.466Z,97568.66
2018-06-14T08:17:43.686Z,97564.96
2018-06-14T08:20:17.146Z,97565.48
2018-06-14T08:22:50.246Z,97559.86
2018-06-14T08:25:23.800Z,97563.61
2018-06-14T08:27:56.875Z,97558.00
2018-06-14T08:30:29.465Z,97557.71
2018-06-14T08:33:01.585Z,97557.80
2018-06-14T08:35:34.267Z,97544.52
2018-06-14T08:38:06.545Z,97552.47
2018-06-14T08:40:39.078Z,97546.50
2018-06-14T08:43:11.248Z,97541.68
2018-06-14T08:45:44.575Z,97538.21
2018-06-14T08:48:17.067Z,97537.39
2018-06-14T08:50:50.483Z,97540.50
2018-06-14T08:53:23.309Z,97536.34
2018-06-14T08:55:56.227Z,97531.27
2018-06-14T08:58:28.342Z,97522.05
2018-06-14T09:01:00.969Z,97519.06
2018-06-14T09:03:33.871Z,97515.59
2018-06-14T09:06:07.952Z,97503.84
2018-06-14T09:08:41.993Z,97508.36
2018-06-14T09:11:14.851Z,97510.08
2018-06-14T09:13:47.543Z,97506.81
2018-06-14T09:16:19.768Z,97508.49
2018-06-14T09:18:52.351Z,97502.29
2018-06-14T09:21:24.759Z,97505.22
2018-06-14T09:23:57.655Z,97496.37
2018-06-14T09:26:30.194Z,97507.19
2018-06-14T09:29:02.641Z,97498.90
2018-06-14T09:31:35.923Z,97490.77
2018-06-14T09:34:08.939Z,97484.64
2018-06-14T09:36:41.957Z,97486.73
2018-06-14T09:39:14.618Z,97474.59
2018-06-14T09:41:49.130Z,97477.37
2018-06-14T09:44:23.254Z,97466.78
2018-06-14T09:46:57.765Z,97473.25
2018-06-14T09:49:31.540Z,97466.86
2018-06-14T09:52:04.760Z,97470.06
2018-06-14T09:54:38.165Z,97470.34
2018-06-14T09:57:11.348Z,97460.98
2018-06-14T09:59:44.254Z,97461.27
2018-06-14T10:02:18.511Z,97460.73
2018-06-14T10:04:52.497Z,97445.86
2018-06-14T10:07:25.805Z,97449.13
2018-06-14T10:10:02.364Z,97446.50
2018-06-14T10:12:38.994Z,97448.74
2018-06-14T10:15:12.464Z,97447.33
2018-06-14T10:17:45.763Z,97438.70
2018-06-14T10:20:19.018Z,97442.56
2018-06-14T10:22:52.382Z,97435.19
2018-06-14T10:25:25.781Z,97432.49
2018-06-14T10:27:59.443Z,97426.56
2018-06-14T10:30:33.365Z,97423.93
2018-06-14T10:33:07.335Z,97422.90
2018-06-14T10:35:40.581Z,97423.93
2018-06-14T10:38:13.884Z,97425.03
2018-06-14T10:40:47.717Z,97422.62
2018-06-14T10:43:21.266Z,97418.32
2018-06-14T10:45:53.326Z,97413.17
2018-06-14T10:48:25.651Z,97408.34
2018-06-14T10:50:59.517Z,97403.48
2018-06-14T10:53:32.332Z,97398.37
2018-06-14T10:56:05.620Z,97404.36
2018-06-14T10:58:37.801Z,97397.08
2018-06-14T11:01:10.177Z,97395.95
2018-06-14T11:03:43.556Z,97398.71
2018-06-14T11:06:16.118Z,97397.08
2018-06-14T11:08:49.036Z,97389.27
2018-06-14T11:11:21.292Z,97383.88
2018-06-14T11:13:54.748Z,97387.92
2018-06-14T11:16:27.358Z,97384.71
2018-06-14T11:19:00.942Z,97389.02
2018-06-14T11:21:38.749Z,97382.55
2018-06-14T11:24:11.235Z,97381.48
2018-06-14T11:26:44.168Z,97389.30
2018-06-14T11:29:16.713Z,97384.72
2018-06-14T11:31:48.522Z,97387.95
2018-06-14T11:34:21.661Z,97382.83
2018-06-14T11:36:54.600Z,97383.65
2018-06-14T11:39:28.065Z,97382.83
2018-06-14T11:42:01.631Z,97379.87
2018-06-14T11:44:35.081Z,97376.37
2018-06-14T11:47:07.856Z,97373.41
2018-06-14T11:49:40.913Z,97368.27
2018-06-14T11:52:13.196Z,97374.48
2018-06-14T11:54:46.482Z,97370.18
2018-06-14T11:57:19.966Z,97365.85
2018-06-14T11:59:53.976Z,97367.45
2018-06-14T12:02:27.368Z,97368.55
2018-06-14T12:04:59.790Z,97361.80
2018-06-14T12:07:32.395Z,97367.23
2018-06-14T12:10:05.143Z,97372.06
2018-06-14T12:12:40.672Z,97369.09
2018-06-14T12:15:13.244Z,97372.06
2018-06-14T12:17:46.764Z,97369.39
2018-06-14T12:20:20.185Z,97365.32
2018-06-14T12:22:53.651Z,97372.34
2018-06-14T12:25:27.515Z,97365.85
2018-06-14T12:28:00.735Z,97365.32
2018-06-14T12:30:34.025Z,97364.50
2018-06-14T12:33:06.515Z,97365.83
2018-06-14T12:35:40.643Z,97369.59
2018-06-14T12:38:14.927Z,97371.48
2018-06-14T12:40:48.093Z,97373.67
2018-06-14T12:43:20.885Z,97371.75
2018-06-14T12:45:54.005Z,97374.20
2018-06-14T12:48:26.953Z,97373.92
2018-06-14T12:51:00.404Z,97377.97
2018-06-14T12:53:33.648Z,97380.66
2018-06-14T12:56:06.908Z,97381.20
2018-06-14T12:58:38.983Z,97390.39
2018-06-14T13:01:12.176Z,97391.15
2018-06-14T13:03:44.613Z,97389.27
2018-06-14T13:06:17.790Z,97394.41
2018-06-14T13:08:50.676Z,97400.88
2018-06-14T13:11:23.098Z,97399.78
2018-06-14T13:13:56.003Z,97404.11
2018-06-14T13:16:29.089Z,97401.13
2018-06-14T13:19:01.512Z,97405.67
2018-06-14T13:21:34.395Z,97398.09
2018-06-14T13:24:06.738Z,97407.03
2018-06-14T13:26:39.533Z,97403.55
2018-06-14T13:29:11.814Z,97404.61
2018-06-14T13:31:44.342Z,97404.61
2018-06-14T13:34:16.821Z,97405.95
2018-06-14T13:36:49.824Z,97408.87
2018-06-14T13:39:24.109Z,97411.58
2018-06-14T13:41:56.478Z,97413.73
2018-06-14T13:44:28.625Z,97414.27
2018-06-14T13:47:01.353Z,97422.11
2018-06-14T13:49:34.675Z,97424.25
2018-06-14T13:52:07.487Z,97435.04
2018-06-14T13:54:40.621Z,97433.72
2018-06-14T13:57:14.284Z,97438.02
2018-06-14T13:59:47.516Z,97443.95
2018-06-14T14:02:20.745Z,97443.62
2018-06-14T14:04:53.706Z,97450.13
2018-06-14T14:07:28.393Z,97456.30
2018-06-14T14:10:01.781Z,97462.27
2018-06-14T14:12:34.919Z,97465.20
2018-06-14T14:15:07.698Z,97467.91
2018-06-14T14:17:40.186Z,97472.48
2018-06-14T14:20:12.723Z,97470.03
2018-06-14T14:22:45.751Z,97481.11
2018-06-14T14:25:18.373Z,97481.64
2018-06-14T14:27:51.597Z,97490.80
2018-06-14T14:30:24.847Z,97492.65
2018-06-14T14:32:58.185Z,97499.92
2018-06-14T14:35:31.274Z,97501.87
2018-06-14T14:38:04.847Z,97511.03
2018-06-14T14:40:38.934Z,97514.47
2018-06-14T14:43:11.926Z,97520.47
2018-06-14T14:45:45.208Z,97520.97
2018-06-14T14:48:18.394Z,97529.91
2018-06-14T14:50:51.637Z,97535.05
2018-06-14T14:53:25.531Z,97544.14
2018-06-14T14:55:58.815Z,97543.97
2018-06-14T14:58:33.358Z,97550.95
2018-06-14T15:01:06.089Z,97555.81
2018-06-14T15:03:39.662Z,97553.87
2018-06-14T15:06:12.550Z,97564.97
2018-06-14T15:08:47.019Z,97564.66
2018-06-14T15:11:21.316Z,97571.64
2018-06-14T15:13:54.678Z,97570.30
2018-06-14T15:16:28.213Z,97577.04
2018-06-14T15:19:01.561Z,97577.03
2018-06-14T15:21:34.364Z,97575.97
2018-06-14T15:24:07.529Z,97574.58
2018-06-14T15:26:40.720Z,97578.09
2018-06-14T15:29:14.137Z,97574.34
2018-06-14T15:31:47.188Z,97583.25
2018-06-14T15:34:20.688Z,97579.16
2018-06-14T15:36:53.934Z,97578.86
2018-06-14T15:39:27.691Z,97587.48
2018-06-14T15:42:01.456Z,97593.70
2018-06-14T15:44:34.699Z,97583.49
2018-06-14T15:47:10.302Z,97582.92
2018-06-14T15:49:44.100Z,97581.86
2018-06-14T15:52:17.162Z,97586.67
2018-06-14T15:55:00.524Z,97591.02
2018-06-14T15:57:34.209Z,97591.00
2018-06-14T16:00:08.006Z,97594.77
2018-06-14T16:02:43.422Z,97600.69
2018-06-14T16:05:19.612Z,97603.38
2018-06-14T16:07:52.759Z,97605.73
2018-06-14T16:10:27.265Z,97608.68
2018-06-14T16:13:00.423Z,97613.27
2018-06-14T16:15:34.097Z,97607.05
2018-06-14T16:18:07.252Z,97621.63
2018-06-14T16:20:41.133Z,97620.83
2018-06-14T16:23:14.297Z,97623.56
2018-06-14T16:25:47.727Z,97630.06
2018-06-14T16:28:22.018Z,97633.82
2018-06-14T16:30:55.714Z,97629.78
2018-06-14T16:33:29.594Z,97630.02
2018-06-14T16:36:03.119Z,97641.05
2018-06-14T16:38:37.199Z,97648.08
2018-06-14T16:41:10.809Z,97650.00
2018-06-14T16:43:45.200Z,97649.72
2018-06-14T16:46:18.874Z,97645.67
2018-06-14T16:48:53.298Z,97651.58
2018-06-14T16:51:26.948Z,97648.90
2018-06-14T16:54:01.015Z,97646.72
2018-06-14T16:56:34.947Z,97650.72
2018-06-14T16:59:08.313Z,97657.46
2018-06-14T17:01:41.719Z,97652.31
2018-06-14T17:04:17.086Z,97654.19
2018-06-14T17:06:51.568Z,97655.78
2018-06-14T17:09:24.917Z,97661.73
2018-06-14T17:11:57.857Z,97660.63
2018-06-14T17:14:31.955Z,97662.51
2018-06-14T17:17:05.483Z,97661.45
2018-06-14T17:19:39.025Z,97662.51
2018-06-14T17:22:12.576Z,97668.48
2018-06-14T17:24:45.726Z,97667.61
2018-06-14T17:27:18.900Z,97670.36
2018-06-14T17:29:52.389Z,97670.36
2018-06-14T17:32:25.836Z,97672.48
2018-06-14T17:34:59.133Z,97668.72
2018-06-14T17:37:32.771Z,97667.13
2018-06-14T17:40:05.509Z,97662.80
2018-06-14T17:42:39.517Z,97670.59
2018-06-14T17:45:13.223Z,97674.64
2018-06-14T17:47:46.768Z,97670.89
2018-06-14T17:50:20.027Z,97678.69
2018-06-14T17:52:53.391Z,97676.77
2018-06-14T17:55:26.658Z,97675.13
2018-06-14T17:57:59.953Z,97676.72
2018-06-14T18:00:33.128Z,97677.53
2018-06-14T18:03:07.507Z,97686.72
2018-06-14T18:05:41.762Z,97680.81
2018-06-14T18:08:15.426Z,97673.48
2018-06-14T18:10:49.879Z,97674.06
2018-06-14T18:13:23.445Z,97667.55
2018-06-14T18:15:56.737Z,97672.14
2018-06-14T18:18:30.226Z,97674.84
2018-06-14T18:21:03.972Z,97668.33
2018-06-14T18:23:37.333Z,97672.37
2018-06-14T18:26:10.513Z,97676.98
2018-06-14T18:28:44.710Z,97675.88
2018-06-14T18:31:18.688Z,97682.38
2018-06-14T18:33:53.172Z,97676.98
2018-06-14T18:36:33.579Z,97687.20
2018-06-14T18:39:09.249Z,97679.11
2018-06-14T18:41:42.769Z,97678.53
2018-06-14T18:44:16.051Z,97678.85
2018-06-14T18:46:50.176Z,97680.02
2018-06-14T18:49:23.453Z,97684.87
2018-06-14T18:51:57.567Z,97685.59
2018-06-14T18:54:30.471Z,97685.66
2018-06-14T18:57:03.207Z,97680.88
2018-06-14T18:59:36.585Z,97685.45
2018-06-14T19:02:09.843Z,97680.55
2018-06-14T19:04:43.194Z,97674.67
2018-06-14T19:07:16.073Z,97673.53
2018-06-14T19:09:49.602Z,97675.16
2018-06-14T19:12:22.949Z,97684.59
2018-06-14T19:14:56.369Z,97671.92
2018-06-14T19:17:28.967Z,97668.94
2018-06-14T19:20:03.365Z,97667.59
2018-06-14T19:22:37.095Z,97670.00
2018-06-14T19:25:10.505Z,97667.59
2018-06-14T19:27:43.368Z,97672.98
2018-06-14T19:30:16.764Z,97678.61
2018-06-14T19:32:50.060Z,97677.02
2018-06-14T19:35:23.227Z,97679.44
2018-06-14T19:37:56.406Z,97685.88
2018-06-14T19:40:29.943Z,97683.72
2018-06-14T19:43:03.899Z,97683.42
2018-06-14T19:45:37.568Z,97685.02
2018-06-14T19:48:10.055Z,97689.34
2018-06-14T19:50:43.186Z,97685.81
2018-06-14T19:53:16.251Z,97693.38
2018-06-14T19:55:50.001Z,97680.42
2018-06-14T19:58:24.461Z,97669.06
2018-06-14T20:00:58.360Z,97670.13
2018-06-14T20:03:31.154Z,97673.40
2018-06-14T20:06:03.753Z,97670.70
2018-06-14T20:08:37.243Z,97668.25
2018-06-14T20:11:10.289Z,97670.70
2018-06-14T20:13:43.923Z,97663.39
2018-06-14T20:16:17.029Z,97665.27
2018-06-14T20:18:50.341Z,97661.46
2018-06-14T20:21:23.682Z,97655.30
2018-06-14T20:23:56.257Z,97664.16
2018-06-14T20:26:29.614Z,97659.56
2018-06-14T20:29:02.793Z,97657.12
2018-06-14T20:31:35.617Z,97654.44
2018-06-14T20:34:08.013Z,97655.00
2018-06-14T20:36:41.200Z,97660.39
2018-06-14T20:39:14.873Z,97660.05
2018-06-14T20:41:48.926Z,97662.45
2018-06-14T20:44:21.407Z,97667.27
2018-06-14T20:46:54.919Z,97671.36
2018-06-14T20:49:28.039Z,97675.34
2018-06-14T20:52:01.581Z,97668.61
2018-06-14T20:54:34.694Z,97669.70
2018-06-14T20:57:07.371Z,97666.48
2018-06-14T20:59:40.253Z,97667.77
2018-06-14T21:02:12.809Z,97671.86
2018-06-14T21:04:45.851Z,97669.70
2018-06-14T21:07:18.452Z,97669.70
2018-06-14T21:09:51.534Z,97668.59
2018-06-14T21:12:24.339Z,97667.48
2018-06-14T21:14:57.827Z,97659.11
2018-06-14T21:17:30.601Z,97649.39
2018-06-14T21:20:04.004Z,97651.03
2018-06-14T21:22:36.905Z,97647.75
2018-06-14T21:25:09.584Z,97652.36
2018-06-14T21:27:42.622Z,97653.41
2018-06-14T21:30:15.640Z,97656.64
2018-06-14T21:32:47.962Z,97653.13
2018-06-14T21:35:20.678Z,97649.61
2018-06-14T21:37:53.704Z,97650.38
2018-06-14T21:40:26.625Z,97650.38
2018-06-14T21:43:00.349Z,97641.48
2018-06-14T21:45:33.520Z,97644.16
2018-06-14T21:48:06.754Z,97648.22
2018-06-14T21:50:39.952Z,97650.33
2018-06-14T21:53:13.194Z,97653.84
2018-06-14T21:55:46.000Z,97651.44
2018-06-14T21:58:18.851Z,97656.28
2018-06-14T22:00:52.115Z,97648.44
2018-06-14T22:03:30.016Z,97651.13
2018-06-14T22:06:03.502Z,97647.04
2018-06-14T22:08:36.954Z,97648.67
2018-06-14T22:11:09.744Z,97652.13
2018-06-14T22:13:42.887Z,97651.08
2018-06-14T22:16:15.617Z,97649.65
2018-06-14T22:18:48.476Z,97653.69
2018-06-14T22:21:21.380Z,97654.78
2018-06-14T22:23:54.040Z,97662.28
2018-06-14T22:26:26.350Z,97662.80
2018-06-14T22:28:59.678Z,97663.57
2018-06-14T22:31:32.398Z,97666.55
2018-06-14T22:34:14.886Z,97672.98
2018-06-14T22:36:46.901Z,97666.48
2018-06-14T22:39:19.491Z,97669.47
2018-06-14T22:41:52.028Z,97667.59
2018-06-14T22:44:25.801Z,97672.98
2018-06-14T22:46:59.282Z,97683.48
2018-06-14T22:49:32.425Z,97688.31
2018-06-14T22:53:15.401Z,97689.91
2018-06-14T22:55:48.055Z,97701.67
2018-06-14T22:58:20.540Z,97693.07
2018-06-14T23:02:04.734Z,97706.30
2018-06-14T23:04:37.350Z,97701.42
2018-06-14T23:07:10.100Z,97708.15
2018-06-14T23:10:19.363Z,97707.86
2018-06-14T23:12:52.520Z,97712.38
2018-06-14T23:15:24.516Z,97719.39
2018-06-14T23:17:57.255Z,97716.70
2018-06-14T23:20:30.125Z,97720.97
2018-06-14T23:23:04.091Z,97720.73
2018-06-14T23:25:37.582Z,97725.55
2018-06-14T23:28:10.643Z,97724.98
2018-06-14T23:30:43.418Z,97725.46
2018-06-14T23:33:15.636Z,97738.34
2018-06-14T23:35:48.375Z,97738.63
2018-06-14T23:38:21.069Z,97743.72
2018-06-14T23:40:53.918Z,97742.67
2018-06-14T23:43:27.151Z,97755.55
2018-06-14T23:46:00.235Z,97756.89
2018-06-14T23:48:33.662Z,97759.85
2018-06-14T23:51:06.473Z,97760.64
2018-06-14T23:53:39.627Z,97758.50
2018-06-14T23:56:11.980Z,97767.58
2018-06-14T23:58:45.277Z,97766.23
